Accueil
METAR-TAF:

METAR-TAF

Aéroports :

Base aérienne 113 Saint-Dizier-Robinson

Saint-Dizier, France

latitude: 48-38N, longitude: 004-54E, altitude: 139 m

Observation

Le bulletin a été fait il y a 31 minutes, à 22:30 UTC
Vent 6 kt de est
Température 4°C
Humidité 75%
Pression 1018 hPa
Visibilité 10 km ou plus
pas de nuages en-dessous de 1500 mètres et pas de cumulonimbus.

METAR: LFSI 242230Z AUTO 09006KT CAVOK 04/00 Q1018

Heure: 00:01 (23:01 UTC)

Prévision

Le bulletin a été fait il y a 3 heures et 1 minutes, à 20:00 UTC
Prévision valable du 24 à 21 UTC au 25 à 21 UTC
Vent 5 kt de est
Visibilité 10 km ou plus
pas de nuages en-dessous de 1500 mètres et pas de cumulonimbus.
Probabilité 30% :
Temporairement
du 25 à 01 UTC au 25 à 07 UTC
Visibilité: 4500 m
brume

TAF: LFSI 242000Z 2421/2521 10005KT CAVOK PROB30 TEMPO 2501/2507 4500 BR

Observations et prévisions météorologiques de plus de 4000 aéroports (messages METAR et TAF).

Les stations disponibles sont représentées par des disques jaunes et rouges sur la carte.

Passer la souris dessus pour voir le nom de la station.

Cliquer dessus pour voir les observations et prévisions météorologiques.

Pour changer de carte: cliquez sur les boutons verts avec une croix noire pour zoomer, sur le bouton vert avec un tiret pour effectuer un zoom arrière, ou sur les flèches vertes pour les cartes adjacentes.


METAR-TAF: